This is the latest recevied weather packets stored in our database for station/object E22FEY-1. If no packets are shown the sender has not sent any weather packets the latest 1 day(s).
| Time | Temp. | Humidity | Pressure | Rain* | Wind** | Luminosity | Snow |
|---|---|---|---|---|---|---|---|
| 1778067919 | 34.44° C | 56% | 1006 hPa | - | - | 0 W/m² | - |
| 1778067825 | 34.44° C | 56% | 1006 hPa | - | - | 0 W/m² | - |
| 1778064833 | 36.11° C | 51% | 1005 hPa | - | - | 0 W/m² | - |
| 1778063985 | 35.56° C | 52% | 1005 hPa | - | - | 0 W/m² | - |
| 1778063636 | 36.11° C | 51% | 1005 hPa | - | - | 0 W/m² | - |
| 1778060863 | 36.11° C | 50% | 1005 hPa | - | - | 0 W/m² | - |
| 1778059014 | 37.22° C | 46% | 1005 hPa | - | - | 0 W/m² | - |
| 1778058090 | 37.22° C | 45% | 1005 hPa | - | - | 0 W/m² | - |
| 1778057166 | 37.78° C | 44% | 1005 hPa | - | - | 0 W/m² | - |
| 1778053458 | 38.89° C | 40% | 1005 hPa | - | - | 0 W/m² | - |
| 1778050685 | 40° C | 40% | 1006 hPa | - | - | 0 W/m² | - |
| 1778049761 | 38.89° C | 41% | 1006 hPa | - | - | 0 W/m² | - |
| 1778048837 | 40° C | 41% | 1006 hPa | - | - | 0 W/m² | - |
| 1778047912 | 39.44° C | 41% | 1007 hPa | - | - | 0 W/m² | - |
| 1778046988 | 39.44° C | 40% | 1007 hPa | - | - | 0 W/m² | - |
| 1778046064 | 39.44° C | 41% | 1007 hPa | - | - | 0 W/m² | - |
| 1778045140 | 40° C | 41% | 1008 hPa | - | - | 0 W/m² | - |
| 1778042367 | 39.44° C | 42% | 1008 hPa | - | - | 0 W/m² | - |
| 1778041443 | 38.89° C | 42% | 1009 hPa | - | - | 0 W/m² | - |
| 1778040519 | 39.44° C | 42% | 1009 hPa | - | - | 0 W/m² | - |
| 1778039595 | 38.89° C | 43% | 1009 hPa | - | - | 0 W/m² | - |
| 1778037747 | 39.44° C | 44% | 1009 hPa | - | - | 0 W/m² | - |
| 1778036822 | 38.89° C | 45% | 1009 hPa | - | - | 0 W/m² | - |
| 1778035898 | 38.33° C | 47% | 1009 hPa | - | - | 0 W/m² | - |
| 1778034974 | 40° C | 39% | 1009 hPa | - | - | 0 W/m² | - |
* Rain since midnight (hover to see other rain measurements)
** Current wind speed in m/s (hover to see current wind gust speed)